createdAt,value
2023-03-16T00:01:05.724Z,18
2023-03-16T00:02:12.666Z,17
2023-03-16T00:03:19.733Z,24
2023-03-16T00:04:29.210Z,28
2023-03-16T00:05:36.058Z,20
2023-03-16T00:06:43.069Z,17
2023-03-16T00:07:53.240Z,17
2023-03-16T00:09:00.135Z,18
2023-03-16T00:10:07.113Z,16
2023-03-16T00:11:14.286Z,15
2023-03-16T00:12:21.317Z,16
2023-03-16T00:13:28.329Z,17
2023-03-16T00:14:35.327Z,16
2023-03-16T00:15:42.328Z,16
2023-03-16T00:16:58.817Z,18
2023-03-16T00:18:05.747Z,17
2023-03-16T00:19:12.713Z,16
2023-03-16T00:20:19.601Z,18
2023-03-16T00:21:30.517Z,18
2023-03-16T00:22:38.558Z,18
2023-03-16T00:23:49.067Z,18
2023-03-16T00:24:56.814Z,21
2023-03-16T00:26:03.695Z,19
2023-03-16T00:27:10.630Z,18
2023-03-16T00:28:20.248Z,18
2023-03-16T00:29:27.362Z,17
2023-03-16T00:30:35.047Z,18
2023-03-16T00:31:45.286Z,19
2023-03-16T00:32:52.163Z,20
2023-03-16T00:34:01.104Z,21
2023-03-16T00:35:09.472Z,26
2023-03-16T00:36:15.114Z,30
2023-03-16T00:37:21.976Z,21
2023-03-16T00:38:28.813Z,21
2023-03-16T00:39:35.787Z,22
2023-03-16T00:40:42.765Z,21
2023-03-16T00:41:49.711Z,22
2023-03-16T00:42:56.584Z,21
2023-03-16T00:44:03.594Z,20
2023-03-16T00:45:10.484Z,21
2023-03-16T00:46:17.447Z,20
2023-03-16T00:47:24.364Z,21
2023-03-16T00:48:31.281Z,21
2023-03-16T00:49:41.326Z,20
2023-03-16T00:50:52.226Z,21
2023-03-16T00:52:00.110Z,22
2023-03-16T00:53:11.776Z,25
2023-03-16T00:54:18.992Z,21
2023-03-16T00:55:26.418Z,45
2023-03-16T00:56:33.789Z,53
2023-03-16T00:57:41.360Z,51
2023-03-16T00:58:48.534Z,40
2023-03-16T00:59:55.649Z,45
2023-03-16T01:01:02.885Z,37
2023-03-16T01:02:10.017Z,34
2023-03-16T01:03:17.091Z,35
2023-03-16T01:04:24.092Z,31
2023-03-16T01:05:31.325Z,27
2023-03-16T01:06:39.877Z,22
2023-03-16T01:07:45.698Z,25
2023-03-16T01:08:52.873Z,24
2023-03-16T01:10:04.235Z,24
2023-03-16T01:11:11.461Z,22
2023-03-16T01:12:19.118Z,22
2023-03-16T01:13:26.134Z,22
2023-03-16T01:14:33.023Z,24
2023-03-16T01:15:40.018Z,23
2023-03-16T01:16:47.377Z,24
2023-03-16T01:17:56.139Z,24
2023-03-16T01:19:03.336Z,23
2023-03-16T01:20:12.668Z,22
2023-03-16T01:21:19.591Z,20
2023-03-16T01:22:27.503Z,22
2023-03-16T01:23:34.419Z,19
2023-03-16T01:24:41.345Z,20
2023-03-16T01:25:48.250Z,21
2023-03-16T01:26:58.079Z,19
2023-03-16T01:28:05.022Z,20
2023-03-16T01:29:11.966Z,19
2023-03-16T01:30:22.373Z,19
2023-03-16T01:31:29.190Z,20
2023-03-16T01:32:37.815Z,22
2023-03-16T01:33:46.552Z,20
2023-03-16T01:34:53.489Z,19
2023-03-16T01:36:01.494Z,20
2023-03-16T01:37:09.421Z,18
2023-03-16T01:38:18.422Z,19
2023-03-16T01:39:26.266Z,18
2023-03-16T01:40:34.924Z,19
2023-03-16T01:41:41.735Z,19
2023-03-16T01:42:51.177Z,18
2023-03-16T01:44:03.012Z,19
2023-03-16T01:45:10.525Z,18
2023-03-16T01:46:27.658Z,18
2023-03-16T01:47:37.199Z,19
2023-03-16T01:48:44.050Z,18
2023-03-16T01:50:01.058Z,19
2023-03-16T01:51:07.983Z,18
2023-03-16T01:52:16.162Z,19
2023-03-16T01:53:23.052Z,18
2023-03-16T01:54:31.669Z,18
2023-03-16T01:55:43.713Z,19
2023-03-16T01:56:50.558Z,17
2023-03-16T01:58:08.294Z,18
2023-03-16T01:59:15.253Z,18
2023-03-16T02:00:29.299Z,18
2023-03-16T02:01:38.872Z,18
2023-03-16T02:02:53.571Z,18
2023-03-16T02:04:03.215Z,17
2023-03-16T02:05:16.920Z,18
2023-03-16T02:06:28.826Z,18
2023-03-16T02:07:37.646Z,19
2023-03-16T02:08:44.508Z,18
2023-03-16T02:09:52.351Z,18
2023-03-16T02:11:00.103Z,18
2023-03-16T02:12:06.929Z,19
2023-03-16T02:13:13.818Z,17
2023-03-16T02:14:20.675Z,18
2023-03-16T02:15:27.570Z,18
2023-03-16T02:16:35.180Z,18
2023-03-16T02:17:42.069Z,17
2023-03-16T02:18:48.964Z,17
2023-03-16T02:19:55.798Z,18
2023-03-16T02:21:12.752Z,17
2023-03-16T02:22:22.726Z,18
2023-03-16T02:23:30.626Z,18
2023-03-16T02:24:37.571Z,18
2023-03-16T02:25:44.475Z,17
2023-03-16T02:26:56.376Z,17
2023-03-16T02:28:06.611Z,18
2023-03-16T02:29:13.968Z,16
2023-03-16T02:30:27.335Z,18
2023-03-16T02:31:36.235Z,18
2023-03-16T02:32:43.201Z,16
2023-03-16T02:33:52.626Z,17
2023-03-16T02:34:59.528Z,16
2023-03-16T02:36:15.450Z,17
2023-03-16T02:37:22.505Z,17
2023-03-16T02:38:33.352Z,16
2023-03-16T02:39:42.355Z,17
2023-03-16T02:40:49.241Z,16
2023-03-16T02:42:01.419Z,16
2023-03-16T02:43:11.355Z,16
2023-03-16T02:44:20.988Z,16
2023-03-16T02:45:33.799Z,16
2023-03-16T02:46:46.743Z,15
2023-03-16T02:47:53.659Z,16
2023-03-16T02:49:00.965Z,16
2023-03-16T02:50:10.588Z,15
2023-03-16T02:51:17.487Z,16
2023-03-16T02:52:24.321Z,15
2023-03-16T02:53:31.314Z,15
2023-03-16T02:54:38.277Z,15
2023-03-16T02:55:45.271Z,15
2023-03-16T02:56:53.068Z,15
2023-03-16T02:58:00.542Z,15
2023-03-16T02:59:07.902Z,15
2023-03-16T03:00:16.530Z,15
2023-03-16T03:01:23.619Z,15
2023-03-16T03:02:30.781Z,16
2023-03-16T03:03:39.944Z,15
2023-03-16T03:04:48.013Z,14
2023-03-16T03:05:55.116Z,16
2023-03-16T03:07:04.989Z,14
2023-03-16T03:08:12.890Z,14
2023-03-16T03:09:19.770Z,14
2023-03-16T03:10:30.579Z,15
2023-03-16T03:11:38.657Z,15
2023-03-16T03:12:47.998Z,15
2023-03-16T03:13:54.849Z,15
2023-03-16T03:15:04.714Z,15
2023-03-16T03:16:13.069Z,15
2023-03-16T03:17:20.070Z,15
2023-03-16T03:18:27.362Z,14
2023-03-16T03:19:34.854Z,15
2023-03-16T03:20:44.001Z,15
2023-03-16T03:21:54.594Z,14
2023-03-16T03:23:03.354Z,14
2023-03-16T03:24:10.384Z,15
2023-03-16T03:25:17.776Z,14
2023-03-16T03:26:28.639Z,14
2023-03-16T03:27:37.184Z,14
2023-03-16T03:28:44.169Z,15
2023-03-16T03:29:51.178Z,14
2023-03-16T03:30:58.948Z,15
2023-03-16T03:32:06.629Z,14
2023-03-16T03:33:18.947Z,14
2023-03-16T03:34:26.036Z,15
2023-03-16T03:35:33.077Z,15
2023-03-16T03:36:41.477Z,13
2023-03-16T03:37:48.489Z,14
2023-03-16T03:38:55.692Z,14
2023-03-16T03:40:02.911Z,14
2023-03-16T03:41:10.876Z,14
2023-03-16T03:42:18.345Z,14
2023-03-16T03:43:25.298Z,14
2023-03-16T03:44:32.314Z,14
2023-03-16T03:45:39.344Z,14
2023-03-16T03:46:46.541Z,14
2023-03-16T03:47:53.247Z,14
2023-03-16T03:49:00.263Z,14
2023-03-16T03:50:07.257Z,14
2023-03-16T03:51:14.258Z,14
2023-03-16T03:52:22.648Z,14
2023-03-16T03:53:30.776Z,15
2023-03-16T03:54:38.778Z,14
2023-03-16T03:55:45.726Z,15
2023-03-16T03:56:52.650Z,15
2023-03-16T03:58:00.069Z,14
2023-03-16T03:59:07.088Z,14
2023-03-16T04:00:14.098Z,15
2023-03-16T04:01:21.180Z,14
2023-03-16T04:02:28.320Z,15
2023-03-16T04:03:35.227Z,15
2023-03-16T04:04:42.186Z,14
2023-03-16T04:05:49.201Z,15
2023-03-16T04:06:56.222Z,16
2023-03-16T04:08:03.206Z,15
2023-03-16T04:09:10.138Z,16
2023-03-16T04:10:18.286Z,16
2023-03-16T04:11:25.248Z,17
2023-03-16T04:12:32.204Z,17
2023-03-16T04:13:41.343Z,16
2023-03-16T04:14:48.471Z,16
2023-03-16T04:15:55.434Z,16
2023-03-16T04:17:05.417Z,16
2023-03-16T04:18:16.205Z,17
2023-03-16T04:19:24.109Z,17
2023-03-16T04:20:33.757Z,16
2023-03-16T04:21:40.806Z,16
2023-03-16T04:22:48.696Z,16
2023-03-16T04:23:55.673Z,17
2023-03-16T04:25:03.417Z,16
2023-03-16T04:26:14.034Z,16
2023-03-16T04:27:23.925Z,16
2023-03-16T04:28:31.078Z,18
2023-03-16T04:29:42.880Z,16
2023-03-16T04:30:54.201Z,16
2023-03-16T04:32:04.081Z,16
2023-03-16T04:33:11.089Z,17
2023-03-16T04:34:18.765Z,16
2023-03-16T04:35:25.742Z,15
2023-03-16T04:36:35.742Z,17
2023-03-16T04:37:46.886Z,17
2023-03-16T04:38:53.920Z,16
2023-03-16T04:40:00.802Z,16
2023-03-16T04:41:07.952Z,18
2023-03-16T04:42:14.869Z,17
2023-03-16T04:43:21.988Z,19
2023-03-16T04:44:29.742Z,19
2023-03-16T04:45:37.503Z,18
2023-03-16T04:46:44.468Z,19
2023-03-16T04:47:51.586Z,18
2023-03-16T04:48:58.805Z,19
2023-03-16T04:50:11.771Z,20
2023-03-16T04:51:22.074Z,19
2023-03-16T04:52:33.546Z,20
2023-03-16T04:53:40.863Z,20
2023-03-16T04:54:49.997Z,21
2023-03-16T04:55:56.992Z,21
2023-03-16T04:57:04.745Z,23
2023-03-16T04:58:14.341Z,23
2023-03-16T04:59:24.514Z,24
2023-03-16T05:00:31.501Z,25
2023-03-16T05:01:38.697Z,28
2023-03-16T05:02:45.569Z,28
2023-03-16T05:03:55.002Z,27
2023-03-16T05:05:02.951Z,27
2023-03-16T05:06:09.988Z,29
2023-03-16T05:07:16.912Z,29
2023-03-16T05:08:28.455Z,31
2023-03-16T05:09:35.409Z,31
2023-03-16T05:10:45.587Z,34
2023-03-16T05:11:53.395Z,35
2023-03-16T05:13:00.415Z,34
2023-03-16T05:14:10.181Z,34
2023-03-16T05:15:21.010Z,35
2023-03-16T05:16:28.065Z,35
2023-03-16T05:17:34.920Z,35
2023-03-16T05:18:41.859Z,35
2023-03-16T05:19:48.865Z,37
2023-03-16T05:20:56.789Z,34
2023-03-16T05:22:03.825Z,33
2023-03-16T05:23:12.725Z,33
2023-03-16T05:24:21.424Z,32
2023-03-16T05:25:28.345Z,27
2023-03-16T05:26:35.335Z,28
2023-03-16T05:27:47.380Z,28
2023-03-16T05:28:54.342Z,27
2023-03-16T05:30:03.590Z,25
2023-03-16T05:31:10.887Z,22
2023-03-16T05:32:17.862Z,20
2023-03-16T05:33:28.084Z,22
2023-03-16T05:34:35.493Z,21
2023-03-16T05:35:42.726Z,24
2023-03-16T05:36:49.820Z,25
2023-03-16T05:37:59.485Z,25
2023-03-16T05:39:07.473Z,25
2023-03-16T05:40:17.527Z,25
2023-03-16T05:41:29.143Z,25
2023-03-16T05:42:36.873Z,24
2023-03-16T05:43:43.759Z,25
2023-03-16T05:44:51.079Z,24
2023-03-16T05:45:58.183Z,22
2023-03-16T05:47:06.154Z,22
2023-03-16T05:48:13.002Z,22
2023-03-16T05:49:22.750Z,21
2023-03-16T05:50:30.909Z,21
2023-03-16T05:51:37.431Z,21
2023-03-16T05:52:44.839Z,21
2023-03-16T05:53:51.840Z,21
2023-03-16T05:55:01.519Z,21
2023-03-16T05:56:08.682Z,20
2023-03-16T05:57:15.622Z,21
2023-03-16T05:58:22.599Z,20
2023-03-16T05:59:29.512Z,21
2023-03-16T06:00:37.678Z,22
2023-03-16T06:01:45.130Z,22
2023-03-16T06:02:52.296Z,20
2023-03-16T06:04:01.441Z,21
2023-03-16T06:05:11.123Z,17
2023-03-16T06:06:19.146Z,18
2023-03-16T06:07:28.800Z,18
2023-03-16T06:08:33.677Z,17
2023-03-16T06:09:42.950Z,17
2023-03-16T06:10:52.627Z,18
2023-03-16T06:11:59.556Z,19
2023-03-16T06:13:09.987Z,18
2023-03-16T06:14:16.970Z,19
2023-03-16T06:15:24.105Z,18
2023-03-16T06:16:31.946Z,17
2023-03-16T06:17:38.882Z,17
2023-03-16T06:18:45.769Z,17
2023-03-16T06:19:56.066Z,15
2023-03-16T06:21:03.924Z,16
2023-03-16T06:22:14.012Z,17
2023-03-16T06:23:23.383Z,16
2023-03-16T06:24:31.059Z,16
2023-03-16T06:25:41.410Z,16
2023-03-16T06:26:48.354Z,17
2023-03-16T06:27:55.428Z,16
2023-03-16T06:29:02.966Z,16
2023-03-16T06:30:09.953Z,15
2023-03-16T06:31:20.633Z,16
2023-03-16T06:32:28.683Z,17
2023-03-16T06:33:36.534Z,17
2023-03-16T06:34:43.639Z,16
2023-03-16T06:35:51.380Z,17
2023-03-16T06:37:01.453Z,17
2023-03-16T06:38:08.855Z,16
2023-03-16T06:39:19.140Z,16
2023-03-16T06:40:27.491Z,17
2023-03-16T06:41:34.183Z,17
2023-03-16T06:42:42.073Z,17
2023-03-16T06:43:51.303Z,17
2023-03-16T06:44:58.308Z,17
2023-03-16T06:46:06.270Z,16
2023-03-16T06:47:14.005Z,16
2023-03-16T06:48:22.311Z,17
2023-03-16T06:49:29.689Z,15
2023-03-16T06:50:36.868Z,16
2023-03-16T06:51:43.880Z,16
2023-03-16T06:52:50.797Z,15
2023-03-16T06:53:57.817Z,14
2023-03-16T06:55:05.806Z,14
2023-03-16T06:56:12.837Z,14
2023-03-16T06:57:23.661Z,13
2023-03-16T06:58:30.669Z,14
2023-03-16T06:59:40.224Z,13
2023-03-16T07:00:51.041Z,13
2023-03-16T07:02:02.492Z,14
2023-03-16T07:03:10.156Z,13
2023-03-16T07:04:18.343Z,12
2023-03-16T07:05:25.188Z,12
2023-03-16T07:06:34.618Z,12
2023-03-16T07:07:42.063Z,13
2023-03-16T07:08:50.741Z,12
2023-03-16T07:09:58.233Z,12
2023-03-16T07:11:05.397Z,11
2023-03-16T07:12:12.829Z,12
2023-03-16T07:13:23.328Z,11
2023-03-16T07:14:31.289Z,11
2023-03-16T07:15:38.238Z,12
2023-03-16T07:16:47.552Z,12
2023-03-16T07:17:55.663Z,11
2023-03-16T07:19:02.700Z,11
2023-03-16T07:20:13.249Z,11
2023-03-16T07:21:23.000Z,10
2023-03-16T07:22:30.083Z,11
2023-03-16T07:23:37.076Z,11
2023-03-16T07:24:50.022Z,11
2023-03-16T07:25:57.400Z,11
2023-03-16T07:27:04.252Z,11
2023-03-16T07:28:11.351Z,10
2023-03-16T07:29:18.290Z,11
2023-03-16T07:30:26.669Z,11
2023-03-16T07:31:35.574Z,10
2023-03-16T07:32:43.401Z,12
2023-03-16T07:33:53.895Z,11
2023-03-16T07:35:00.950Z,10
2023-03-16T07:36:13.009Z,11
2023-03-16T07:37:25.243Z,10
2023-03-16T07:38:29.370Z,8
2023-03-16T07:39:36.957Z,8
2023-03-16T07:40:44.554Z,8
2023-03-16T07:41:53.351Z,7
2023-03-16T07:43:00.993Z,6
2023-03-16T07:44:09.466Z,6
2023-03-16T07:45:17.274Z,6
2023-03-16T07:46:24.243Z,7
2023-03-16T07:47:32.041Z,6
2023-03-16T07:48:39.870Z,6
2023-03-16T07:49:46.877Z,7
2023-03-16T07:50:54.104Z,6
2023-03-16T07:52:02.938Z,7
2023-03-16T07:53:09.938Z,6
2023-03-16T07:54:18.001Z,6
2023-03-16T07:55:29.494Z,6
2023-03-16T07:56:48.116Z,7
2023-03-16T07:57:44.214Z,7
2023-03-16T07:58:51.310Z,7
2023-03-16T07:59:58.480Z,7
2023-03-16T08:01:05.515Z,7
2023-03-16T08:02:12.517Z,8
2023-03-16T08:03:22.056Z,7
2023-03-16T08:04:33.045Z,8
2023-03-16T08:05:43.163Z,8
2023-03-16T08:06:53.360Z,9
2023-03-16T08:08:00.285Z,9
2023-03-16T08:09:11.398Z,9
2023-03-16T08:10:21.402Z,8
2023-03-16T08:11:28.845Z,7
2023-03-16T08:12:35.875Z,7
2023-03-16T08:13:43.618Z,7
2023-03-16T08:14:51.356Z,7
2023-03-16T08:16:02.008Z,6
2023-03-16T08:17:08.832Z,6
2023-03-16T08:18:16.516Z,6
2023-03-16T08:19:25.147Z,6
2023-03-16T08:20:32.642Z,5
2023-03-16T08:21:59.940Z,5
2023-03-16T08:22:49.535Z,6
2023-03-16T08:23:56.452Z,5
2023-03-16T08:25:03.513Z,6
2023-03-16T08:26:10.855Z,5
2023-03-16T08:27:18.994Z,5
2023-03-16T08:28:28.249Z,5
2023-03-16T08:29:35.233Z,5
2023-03-16T08:30:42.217Z,5
2023-03-16T08:31:49.153Z,5
2023-03-16T08:32:57.223Z,5
2023-03-16T08:34:04.507Z,5
2023-03-16T08:35:11.742Z,5
2023-03-16T08:36:22.670Z,5
2023-03-16T08:37:29.695Z,5
2023-03-16T08:38:40.395Z,5
2023-03-16T08:39:49.489Z,4
2023-03-16T08:41:00.154Z,4
2023-03-16T08:42:07.999Z,4
2023-03-16T08:43:15.137Z,4
2023-03-16T08:44:22.727Z,4
2023-03-16T08:45:30.505Z,4
2023-03-16T08:46:37.687Z,4
2023-03-16T08:47:46.884Z,4
2023-03-16T08:48:53.769Z,4
2023-03-16T08:50:03.588Z,5
2023-03-16T08:51:11.068Z,4
2023-03-16T08:52:17.994Z,5
2023-03-16T08:53:24.940Z,5
2023-03-16T08:54:31.835Z,5
2023-03-16T08:55:39.347Z,4
2023-03-16T08:56:46.314Z,4
2023-03-16T08:57:53.514Z,4
2023-03-16T08:59:00.453Z,4
2023-03-16T09:00:07.788Z,4
2023-03-16T09:01:17.655Z,4
2023-03-16T09:02:26.588Z,5
2023-03-16T09:03:33.839Z,4
2023-03-16T09:04:40.962Z,5
2023-03-16T09:05:49.589Z,6
2023-03-16T09:07:08.200Z,6
2023-03-16T09:08:06.725Z,6
2023-03-16T09:09:16.697Z,6
2023-03-16T09:10:24.766Z,6
2023-03-16T09:11:33.561Z,6
2023-03-16T09:12:44.168Z,6
2023-03-16T09:13:53.445Z,5
2023-03-16T09:15:04.052Z,5
2023-03-16T09:16:10.033Z,5
2023-03-16T09:17:18.115Z,6
2023-03-16T09:18:25.902Z,6
2023-03-16T09:19:49.890Z,6
2023-03-16T09:20:40.135Z,6
2023-03-16T09:21:47.456Z,6
2023-03-16T09:22:53.545Z,6
2023-03-16T09:24:00.402Z,6
2023-03-16T09:25:07.309Z,6
2023-03-16T09:26:14.248Z,5
2023-03-16T09:27:21.228Z,4
2023-03-16T09:28:27.888Z,4
2023-03-16T09:29:34.746Z,5
2023-03-16T09:30:41.610Z,5
2023-03-16T09:31:48.667Z,5
2023-03-16T09:32:55.477Z,6
2023-03-16T09:34:02.419Z,5
2023-03-16T09:35:10.281Z,6
2023-03-16T09:36:17.093Z,6
2023-03-16T09:37:24.786Z,6
2023-03-16T09:38:31.770Z,6
2023-03-16T09:39:41.889Z,6
2023-03-16T09:40:48.783Z,6
2023-03-16T09:41:58.597Z,6
2023-03-16T09:43:05.523Z,7
2023-03-16T09:44:22.699Z,7
2023-03-16T09:45:29.981Z,7
2023-03-16T09:46:44.389Z,7
2023-03-16T09:47:51.166Z,6
2023-03-16T09:48:58.186Z,6
2023-03-16T09:50:05.288Z,5
2023-03-16T09:51:12.216Z,6
2023-03-16T09:52:19.085Z,6
2023-03-16T09:53:28.664Z,5
2023-03-16T09:54:35.491Z,5
2023-03-16T09:55:45.071Z,5
2023-03-16T09:56:52.112Z,4
2023-03-16T09:57:59.045Z,5
2023-03-16T09:59:08.489Z,5
2023-03-16T10:00:14.724Z,5
2023-03-16T10:01:21.981Z,6
2023-03-16T10:02:36.623Z,5
2023-03-16T10:03:53.818Z,4
2023-03-16T10:05:03.501Z,4
2023-03-16T10:06:13.098Z,4
2023-03-16T10:07:20.056Z,4
2023-03-16T10:08:32.056Z,4
2023-03-16T10:09:44.077Z,4
2023-03-16T10:10:56.072Z,4
2023-03-16T10:12:10.732Z,4
2023-03-16T10:13:17.615Z,3
2023-03-16T10:14:28.701Z,3
2023-03-16T10:15:45.667Z,6
2023-03-16T10:16:52.598Z,4
2023-03-16T10:18:02.288Z,4
2023-03-16T10:19:19.617Z,4
2023-03-16T10:20:26.799Z,5
2023-03-16T10:21:35.332Z,4
2023-03-16T10:22:43.628Z,4
2023-03-16T10:23:50.547Z,4
2023-03-16T10:25:00.258Z,4
2023-03-16T10:26:12.322Z,5
2023-03-16T10:27:21.794Z,6
2023-03-16T10:28:31.617Z,5
2023-03-16T10:29:38.595Z,4
2023-03-16T10:30:45.378Z,5
2023-03-16T10:31:52.323Z,16
2023-03-16T10:32:59.947Z,46
2023-03-16T10:34:18.026Z,24
2023-03-16T10:35:29.659Z,45
2023-03-16T10:36:42.419Z,29
2023-03-16T10:37:49.755Z,101
2023-03-16T10:38:57.690Z,95
2023-03-16T10:40:08.211Z,37
2023-03-16T10:41:16.094Z,10
2023-03-16T10:42:28.668Z,8
2023-03-16T10:43:36.631Z,6
2023-03-16T10:44:44.834Z,58
2023-03-16T10:45:52.976Z,125
2023-03-16T10:47:04.070Z,44
2023-03-16T10:48:12.259Z,9
2023-03-16T10:49:20.197Z,36
2023-03-16T10:50:33.146Z,107
2023-03-16T10:51:40.844Z,138
2023-03-16T10:52:48.565Z,62
2023-03-16T10:53:56.350Z,22
2023-03-16T10:55:06.470Z,12
2023-03-16T10:56:15.577Z,123
2023-03-16T10:57:23.451Z,149
2023-03-16T10:58:34.780Z,96
2023-03-16T10:59:48.060Z,135
2023-03-16T11:01:02.058Z,123
2023-03-16T11:02:20.117Z,115
2023-03-16T11:03:31.077Z,25
2023-03-16T11:04:41.460Z,4
2023-03-16T11:05:49.413Z,3
2023-03-16T11:07:02.536Z,3
2023-03-16T11:08:10.480Z,8
2023-03-16T11:09:20.794Z,20
2023-03-16T11:10:46.188Z,12
2023-03-16T11:11:46.394Z,6
2023-03-16T11:13:00.346Z,5
2023-03-16T11:14:09.760Z,4
2023-03-16T11:15:25.981Z,4
2023-03-16T11:16:37.348Z,9
2023-03-16T11:17:45.745Z,20
2023-03-16T11:18:58.457Z,26
2023-03-16T11:20:05.838Z,28
2023-03-16T11:21:13.945Z,17
2023-03-16T11:22:29.499Z,10
2023-03-16T11:23:43.011Z,4
2023-03-16T11:24:53.219Z,4
2023-03-16T11:26:07.108Z,4
2023-03-16T11:27:14.351Z,4
2023-03-16T11:28:26.960Z,4
2023-03-16T11:29:38.881Z,4
2023-03-16T11:30:55.328Z,4
2023-03-16T11:32:14.112Z,4
2023-03-16T11:33:27.641Z,4
2023-03-16T11:34:36.915Z,6
2023-03-16T11:35:56.571Z,3
2023-03-16T11:36:57.756Z,3
2023-03-16T11:38:15.361Z,3
2023-03-16T11:39:32.879Z,3
2023-03-16T11:40:39.782Z,3
2023-03-16T11:41:52.047Z,4
2023-03-16T11:43:02.037Z,4
2023-03-16T11:44:12.042Z,4
2023-03-16T11:45:30.397Z,4
2023-03-16T11:46:37.028Z,4
2023-03-16T11:47:49.732Z,4
2023-03-16T11:49:02.493Z,4
2023-03-16T11:50:12.287Z,5
2023-03-16T11:51:29.464Z,4
2023-03-16T11:52:50.074Z,5
2023-03-16T11:54:07.343Z,4
2023-03-16T11:55:17.023Z,4
2023-03-16T11:56:27.099Z,4
2023-03-16T11:57:39.227Z,4
2023-03-16T11:58:54.010Z,4
2023-03-16T12:00:06.249Z,5
2023-03-16T12:01:21.550Z,4
2023-03-16T12:02:38.624Z,4
2023-03-16T12:03:45.358Z,5
2023-03-16T12:04:58.096Z,5
2023-03-16T12:06:22.828Z,5
2023-03-16T12:07:30.267Z,5
2023-03-16T12:08:46.120Z,5
2023-03-16T12:09:56.961Z,5
2023-03-16T12:11:12.010Z,4
2023-03-16T12:12:26.897Z,4
2023-03-16T12:13:41.527Z,3
2023-03-16T12:14:48.338Z,3
2023-03-16T12:16:05.726Z,3
2023-03-16T12:17:13.674Z,4
2023-03-16T12:18:24.331Z,3
2023-03-16T12:19:34.266Z,3
2023-03-16T12:20:46.423Z,3
2023-03-16T12:21:53.258Z,3
2023-03-16T12:23:05.886Z,3
2023-03-16T12:24:18.674Z,3
2023-03-16T12:25:25.566Z,3
2023-03-16T12:26:34.218Z,3
2023-03-16T12:27:41.046Z,3
2023-03-16T12:28:47.945Z,3
2023-03-16T12:29:54.783Z,3
2023-03-16T12:31:06.812Z,4
2023-03-16T12:32:18.844Z,4
2023-03-16T12:33:28.768Z,4
2023-03-16T12:34:45.833Z,4
2023-03-16T12:35:57.833Z,4
2023-03-16T12:37:09.926Z,4
2023-03-16T12:38:17.893Z,4
2023-03-16T12:39:35.043Z,4
2023-03-16T12:40:49.588Z,3
2023-03-16T12:41:59.335Z,3
2023-03-16T12:43:16.659Z,4
2023-03-16T12:44:26.379Z,3
2023-03-16T12:45:38.434Z,3
2023-03-16T12:46:55.639Z,3
2023-03-16T12:48:12.829Z,3
2023-03-16T12:49:24.893Z,3
2023-03-16T12:50:31.670Z,3
2023-03-16T12:51:38.649Z,2
2023-03-16T12:52:45.477Z,3
2023-03-16T12:53:52.317Z,2
2023-03-16T12:54:59.106Z,3
2023-03-16T12:56:08.820Z,3
2023-03-16T12:57:15.561Z,3
2023-03-16T12:58:22.330Z,4
2023-03-16T12:59:29.251Z,6
2023-03-16T13:00:43.939Z,7
2023-03-16T13:01:50.791Z,7
2023-03-16T13:03:00.414Z,12
2023-03-16T13:04:07.358Z,9
2023-03-16T13:05:16.975Z,15
2023-03-16T13:06:36.271Z,5
2023-03-16T13:07:40.953Z,5
2023-03-16T13:08:50.402Z,11
2023-03-16T13:10:00.499Z,4
2023-03-16T13:11:10.395Z,15
2023-03-16T13:12:20.159Z,14
2023-03-16T13:13:29.883Z,31
2023-03-16T13:14:36.763Z,17
2023-03-16T13:15:47.705Z,12
2023-03-16T13:16:55.732Z,6
2023-03-16T13:18:07.565Z,4
2023-03-16T13:19:17.346Z,4
2023-03-16T13:20:31.916Z,3
2023-03-16T13:21:42.198Z,4
2023-03-16T13:22:50.056Z,4
2023-03-16T13:24:07.242Z,7
2023-03-16T13:25:25.326Z,12
2023-03-16T13:26:32.276Z,6
2023-03-16T13:27:40.926Z,7
2023-03-16T13:28:55.944Z,9
2023-03-16T13:30:02.894Z,25
2023-03-16T13:31:20.106Z,4
2023-03-16T13:32:29.974Z,4
2023-03-16T13:33:36.992Z,4
2023-03-16T13:34:43.832Z,3
2023-03-16T13:35:53.596Z,3
2023-03-16T13:37:00.344Z,3
2023-03-16T13:38:07.175Z,4
2023-03-16T13:39:17.052Z,10
2023-03-16T13:40:23.943Z,14
2023-03-16T13:41:30.864Z,7
2023-03-16T13:42:37.781Z,7
2023-03-16T13:43:44.688Z,5
2023-03-16T13:44:51.464Z,6
2023-03-16T13:45:58.336Z,6
2023-03-16T13:47:05.120Z,5
2023-03-16T13:48:17.095Z,4
2023-03-16T13:49:23.925Z,3
2023-03-16T13:50:31.220Z,3
2023-03-16T13:51:37.768Z,3
2023-03-16T13:52:44.616Z,4
2023-03-16T13:53:54.237Z,4
2023-03-16T13:55:01.109Z,4
2023-03-16T13:56:13.195Z,4
2023-03-16T13:57:20.790Z,4
2023-03-16T13:58:35.230Z,4
2023-03-16T13:59:39.712Z,4
2023-03-16T14:00:46.535Z,3
2023-03-16T14:01:53.451Z,4
2023-03-16T14:03:00.527Z,3
2023-03-16T14:04:12.484Z,15
2023-03-16T14:05:19.383Z,12
2023-03-16T14:06:26.285Z,7
2023-03-16T14:07:33.121Z,8
2023-03-16T14:08:40.886Z,4
2023-03-16T14:09:47.707Z,4
2023-03-16T14:10:54.603Z,3
2023-03-16T14:12:01.481Z,3
2023-03-16T14:13:08.398Z,4
2023-03-16T14:14:25.577Z,5
2023-03-16T14:15:34.455Z,9
2023-03-16T14:16:41.223Z,13
2023-03-16T14:17:48.040Z,15
2023-03-16T14:18:54.869Z,6
2023-03-16T14:20:01.755Z,4
2023-03-16T14:21:08.990Z,5
2023-03-16T14:22:15.941Z,3
2023-03-16T14:23:22.911Z,3
2023-03-16T14:24:29.759Z,5
2023-03-16T14:25:36.645Z,11
2023-03-16T14:26:43.440Z,4
2023-03-16T14:27:50.336Z,6
2023-03-16T14:29:02.361Z,12
2023-03-16T14:30:10.518Z,3
2023-03-16T14:31:17.492Z,3
2023-03-16T14:32:24.345Z,3
2023-03-16T14:33:31.174Z,5
2023-03-16T14:34:37.996Z,11
2023-03-16T14:35:45.050Z,5
2023-03-16T14:36:52.025Z,4
2023-03-16T14:38:09.245Z,3
2023-03-16T14:39:26.673Z,3
2023-03-16T14:40:33.465Z,4
2023-03-16T14:41:40.240Z,5
2023-03-16T14:42:47.203Z,3
2023-03-16T14:43:54.033Z,32
2023-03-16T14:45:01.225Z,44
2023-03-16T14:46:08.235Z,12
2023-03-16T14:47:14.961Z,5
2023-03-16T14:48:24.537Z,4
2023-03-16T14:49:31.316Z,3
2023-03-16T14:50:38.522Z,3
2023-03-16T14:51:45.331Z,3
2023-03-16T14:52:52.387Z,3
2023-03-16T14:53:59.448Z,3
2023-03-16T14:55:06.280Z,3
2023-03-16T14:56:13.250Z,3
2023-03-16T14:57:20.032Z,3
2023-03-16T14:58:26.923Z,3
2023-03-16T14:59:33.867Z,19
2023-03-16T15:00:52.218Z,15
2023-03-16T15:01:47.556Z,12
2023-03-16T15:02:54.264Z,7
2023-03-16T15:04:01.112Z,11
2023-03-16T15:05:07.929Z,10
2023-03-16T15:06:14.674Z,7
2023-03-16T15:07:21.515Z,6
2023-03-16T15:08:28.270Z,5
2023-03-16T15:09:35.067Z,5
2023-03-16T15:10:41.926Z,4
2023-03-16T15:11:48.665Z,5
2023-03-16T15:12:55.530Z,4
2023-03-16T15:14:02.367Z,3
2023-03-16T15:15:09.142Z,12
2023-03-16T15:16:18.651Z,13
2023-03-16T15:17:25.459Z,3
2023-03-16T15:18:32.267Z,6
2023-03-16T15:19:39.023Z,2
2023-03-16T15:20:45.983Z,4
2023-03-16T15:21:52.699Z,3
2023-03-16T15:22:59.622Z,2
2023-03-16T15:24:06.703Z,3
2023-03-16T15:25:13.501Z,3
2023-03-16T15:26:20.920Z,3
2023-03-16T15:27:27.079Z,3
2023-03-16T15:28:33.876Z,3
2023-03-16T15:29:40.883Z,3
2023-03-16T15:30:47.662Z,6
2023-03-16T15:31:54.822Z,12
2023-03-16T15:33:01.397Z,14
2023-03-16T15:34:08.211Z,5
2023-03-16T15:35:15.051Z,4
2023-03-16T15:36:21.909Z,3
2023-03-16T15:37:28.725Z,3
2023-03-16T15:38:35.528Z,3
2023-03-16T15:39:42.309Z,3
2023-03-16T15:40:49.235Z,8
2023-03-16T15:41:56.040Z,4
2023-03-16T15:43:02.950Z,9
2023-03-16T15:44:12.651Z,13
2023-03-16T15:45:19.470Z,15
2023-03-16T15:46:26.274Z,36
2023-03-16T15:47:33.245Z,25
2023-03-16T15:48:40.220Z,43
2023-03-16T15:49:48.178Z,49
2023-03-16T15:50:54.038Z,87
2023-03-16T15:52:03.566Z,45
2023-03-16T15:53:17.761Z,31
2023-03-16T15:54:22.510Z,20
2023-03-16T15:55:29.340Z,13
2023-03-16T15:56:51.205Z,19
2023-03-16T15:57:45.923Z,16
2023-03-16T15:58:52.786Z,19
2023-03-16T16:00:02.574Z,13
2023-03-16T16:01:09.903Z,11
2023-03-16T16:02:27.145Z,10
2023-03-16T16:03:33.957Z,9
2023-03-16T16:04:40.905Z,8
2023-03-16T16:05:47.693Z,5
2023-03-16T16:06:54.519Z,4
2023-03-16T16:08:01.379Z,5
2023-03-16T16:09:08.247Z,10
2023-03-16T16:10:15.242Z,10
2023-03-16T16:11:22.163Z,8
2023-03-16T16:12:29.001Z,7
2023-03-16T16:13:43.965Z,6
2023-03-16T16:14:42.738Z,6
2023-03-16T16:15:49.589Z,4
2023-03-16T16:16:56.391Z,4
2023-03-16T16:18:20.205Z,4
2023-03-16T16:19:10.014Z,3
2023-03-16T16:20:16.835Z,4
2023-03-16T16:21:26.889Z,3
2023-03-16T16:22:33.721Z,4
2023-03-16T16:23:40.714Z,3
2023-03-16T16:24:47.587Z,3
2023-03-16T16:25:54.436Z,3
2023-03-16T16:27:01.232Z,4
2023-03-16T16:28:08.046Z,3
2023-03-16T16:29:15.028Z,3
2023-03-16T16:30:27.675Z,4
2023-03-16T16:31:34.639Z,4
2023-03-16T16:32:41.498Z,4
2023-03-16T16:33:48.252Z,4
2023-03-16T16:35:04.074Z,4
2023-03-16T16:36:01.970Z,4